sensor_id;sensor_type;location;lat;lon;timestamp;pressure;altitude;pressure_sealevel;temperature;humidity
77431;BME280;66498;48.564;19.272;2023-03-23T00:01:48;97460.84;;;2.45;84.00
77431;BME280;66498;48.564;19.272;2023-03-23T00:04:17;97457.44;;;2.67;82.57
77431;BME280;66498;48.564;19.272;2023-03-23T00:06:43;97459.00;;;2.99;79.08
77431;BME280;66498;48.564;19.272;2023-03-23T00:09:12;97465.88;;;3.07;76.57
77431;BME280;66498;48.564;19.272;2023-03-23T00:11:38;97465.66;;;2.94;77.30
77431;BME280;66498;48.564;19.272;2023-03-23T00:14:04;97466.31;;;2.96;78.90
77431;BME280;66498;48.564;19.272;2023-03-23T00:16:32;97466.94;;;2.75;80.18
77431;BME280;66498;48.564;19.272;2023-03-23T00:19:04;97470.47;;;2.59;81.58
77431;BME280;66498;48.564;19.272;2023-03-23T00:21:33;97465.63;;;2.56;81.00
77431;BME280;66498;48.564;19.272;2023-03-23T00:24:08;97465.16;;;2.52;81.27
77431;BME280;66498;48.564;19.272;2023-03-23T00:26:41;97462.31;;;2.39;81.14
77431;BME280;66498;48.564;19.272;2023-03-23T00:31:41;97462.09;;;2.49;80.47
77431;BME280;66498;48.564;19.272;2023-03-23T00:34:12;97463.19;;;2.31;80.11
77431;BME280;66498;48.564;19.272;2023-03-23T00:36:37;97459.81;;;2.23;79.92
77431;BME280;66498;48.564;19.272;2023-03-23T00:39:08;97467.72;;;1.98;80.51
77431;BME280;66498;48.564;19.272;2023-03-23T00:41:33;97470.59;;;2.03;80.35
77431;BME280;66498;48.564;19.272;2023-03-23T00:44:01;97465.00;;;2.23;79.88
77431;BME280;66498;48.564;19.272;2023-03-23T00:46:28;97461.78;;;2.52;78.27
77431;BME280;66498;48.564;19.272;2023-03-23T00:48:55;97454.59;;;2.31;80.02
77431;BME280;66498;48.564;19.272;2023-03-23T00:51:23;97457.97;;;2.00;79.93
77431;BME280;66498;48.564;19.272;2023-03-23T00:53:48;97447.06;;;2.13;80.15
77431;BME280;66498;48.564;19.272;2023-03-23T00:56:14;97449.97;;;2.18;80.28
77431;BME280;66498;48.564;19.272;2023-03-23T00:58:40;97441.16;;;1.96;80.96
77431;BME280;66498;48.564;19.272;2023-03-23T01:01:06;97443.53;;;2.14;80.15
77431;BME280;66498;48.564;19.272;2023-03-23T01:03:32;97445.28;;;2.13;79.56
77431;BME280;66498;48.564;19.272;2023-03-23T01:06:04;97437.75;;;1.64;81.10
77431;BME280;66498;48.564;19.272;2023-03-23T01:08:30;97433.91;;;1.44;81.92
77431;BME280;66498;48.564;19.272;2023-03-23T01:11:03;97440.28;;;1.17;83.07
77431;BME280;66498;48.564;19.272;2023-03-23T01:13:29;97443.78;;;1.32;84.08
77431;BME280;66498;48.564;19.272;2023-03-23T01:15:54;97438.50;;;1.81;82.06
77431;BME280;66498;48.564;19.272;2023-03-23T01:18:20;97436.03;;;1.88;81.92
77431;BME280;66498;48.564;19.272;2023-03-23T01:20:46;97429.59;;;1.84;81.19
77431;BME280;66498;48.564;19.272;2023-03-23T01:23:11;97431.25;;;1.69;81.68
77431;BME280;66498;48.564;19.272;2023-03-23T01:25:37;97431.06;;;1.78;81.50
77431;BME280;66498;48.564;19.272;2023-03-23T01:28:02;97435.06;;;2.20;80.02
77431;BME280;66498;48.564;19.272;2023-03-23T01:30:28;97436.00;;;2.27;80.32
77431;BME280;66498;48.564;19.272;2023-03-23T01:32:54;97430.78;;;2.35;80.21
77431;BME280;66498;48.564;19.272;2023-03-23T01:35:21;97430.00;;;2.04;81.18
77431;BME280;66498;48.564;19.272;2023-03-23T01:37:46;97426.31;;;1.42;82.55
77431;BME280;66498;48.564;19.272;2023-03-23T01:40:12;97423.25;;;1.47;83.86
77431;BME280;66498;48.564;19.272;2023-03-23T01:42:38;97432.25;;;1.59;83.49
77431;BME280;66498;48.564;19.272;2023-03-23T01:45:31;97422.44;;;1.38;83.89
77431;BME280;66498;48.564;19.272;2023-03-23T01:48:21;97435.09;;;1.33;84.79
77431;BME280;66498;48.564;19.272;2023-03-23T01:53:19;97427.34;;;1.17;85.05
77431;BME280;66498;48.564;19.272;2023-03-23T01:55:45;97415.72;;;1.13;84.98
77431;BME280;66498;48.564;19.272;2023-03-23T01:58:17;97414.44;;;1.17;84.80
77431;BME280;66498;48.564;19.272;2023-03-23T02:00:45;97417.31;;;1.22;84.27
77431;BME280;66498;48.564;19.272;2023-03-23T02:03:12;97419.22;;;1.45;83.37
77431;BME280;66498;48.564;19.272;2023-03-23T02:05:42;97417.91;;;1.49;82.97
77431;BME280;66498;48.564;19.272;2023-03-23T02:08:10;97414.13;;;1.04;84.44
77431;BME280;66498;48.564;19.272;2023-03-23T02:10:37;97416.38;;;1.07;84.64
77431;BME280;66498;48.564;19.272;2023-03-23T02:13:06;97418.31;;;1.05;84.07
77431;BME280;66498;48.564;19.272;2023-03-23T02:15:45;97418.91;;;1.31;83.35
77431;BME280;66498;48.564;19.272;2023-03-23T02:23:52;97430.75;;;1.17;85.03
77431;BME280;66498;48.564;19.272;2023-03-23T02:27:14;97429.72;;;1.43;85.08
77431;BME280;66498;48.564;19.272;2023-03-23T02:32:01;97439.16;;;1.75;81.40
77431;BME280;66498;48.564;19.272;2023-03-23T02:37:03;97441.69;;;1.83;82.31
77431;BME280;66498;48.564;19.272;2023-03-23T02:39:45;97441.59;;;1.77;82.53
77431;BME280;66498;48.564;19.272;2023-03-23T02:42:16;97439.88;;;1.53;83.78
77431;BME280;66498;48.564;19.272;2023-03-23T02:44:45;97445.06;;;1.45;84.41
77431;BME280;66498;48.564;19.272;2023-03-23T02:47:17;97443.63;;;1.50;84.55
77431;BME280;66498;48.564;19.272;2023-03-23T02:49:46;97439.22;;;1.59;83.94
77431;BME280;66498;48.564;19.272;2023-03-23T02:52:18;97448.78;;;1.42;84.36
77431;BME280;66498;48.564;19.272;2023-03-23T02:54:46;97439.53;;;1.56;83.61
77431;BME280;66498;48.564;19.272;2023-03-23T02:57:13;97444.22;;;1.52;82.95
77431;BME280;66498;48.564;19.272;2023-03-23T02:59:39;97447.03;;;1.34;83.06
77431;BME280;66498;48.564;19.272;2023-03-23T03:02:15;97444.94;;;1.46;81.68
77431;BME280;66498;48.564;19.272;2023-03-23T03:04:47;97450.66;;;1.09;82.03
77431;BME280;66498;48.564;19.272;2023-03-23T03:10:13;97447.25;;;0.92;83.38
77431;BME280;66498;48.564;19.272;2023-03-23T03:14:04;97444.97;;;0.81;83.29
77431;BME280;66498;48.564;19.272;2023-03-23T03:16:07;97438.88;;;0.82;82.85
77431;BME280;66498;48.564;19.272;2023-03-23T03:18:44;97449.00;;;0.67;83.00
77431;BME280;66498;48.564;19.272;2023-03-23T03:21:13;97444.81;;;0.66;84.45
77431;BME280;66498;48.564;19.272;2023-03-23T03:23:42;97442.06;;;0.67;84.77
77431;BME280;66498;48.564;19.272;2023-03-23T03:26:11;97440.47;;;0.66;84.82
77431;BME280;66498;48.564;19.272;2023-03-23T03:28:37;97443.53;;;0.62;84.89
77431;BME280;66498;48.564;19.272;2023-03-23T03:31:04;97438.38;;;0.62;84.67
77431;BME280;66498;48.564;19.272;2023-03-23T03:33:31;97442.25;;;0.66;84.25
77431;BME280;66498;48.564;19.272;2023-03-23T03:36:01;97438.84;;;0.65;84.56
77431;BME280;66498;48.564;19.272;2023-03-23T03:38:27;97434.66;;;0.89;83.73
77431;BME280;66498;48.564;19.272;2023-03-23T03:40:54;97436.72;;;1.18;81.92
77431;BME280;66498;48.564;19.272;2023-03-23T03:43:20;97433.03;;;1.04;82.45
77431;BME280;66498;48.564;19.272;2023-03-23T03:45:46;97431.91;;;1.07;82.09
77431;BME280;66498;48.564;19.272;2023-03-23T03:48:12;97437.72;;;0.84;82.68
77431;BME280;66498;48.564;19.272;2023-03-23T03:50:38;97437.72;;;0.92;82.28
77431;BME280;66498;48.564;19.272;2023-03-23T03:53:04;97437.06;;;0.90;82.71
77431;BME280;66498;48.564;19.272;2023-03-23T03:55:31;97440.31;;;0.92;82.17
77431;BME280;66498;48.564;19.272;2023-03-23T03:58:02;97435.31;;;0.99;82.01
77431;BME280;66498;48.564;19.272;2023-03-23T04:00:29;97437.38;;;0.87;82.50
77431;BME280;66498;48.564;19.272;2023-03-23T04:02:55;97444.03;;;0.82;82.24
77431;BME280;66498;48.564;19.272;2023-03-23T04:05:21;97444.34;;;0.70;82.84
77431;BME280;66498;48.564;19.272;2023-03-23T04:07:47;97439.50;;;1.00;82.05
77431;BME280;66498;48.564;19.272;2023-03-23T04:10:17;97443.06;;;0.58;83.56
77431;BME280;66498;48.564;19.272;2023-03-23T04:12:45;97432.22;;;0.71;84.00
77431;BME280;66498;48.564;19.272;2023-03-23T04:15:10;97429.31;;;0.90;82.82
77431;BME280;66498;48.564;19.272;2023-03-23T04:17:36;97426.38;;;1.02;82.30
77431;BME280;66498;48.564;19.272;2023-03-23T04:20:02;97424.28;;;1.05;81.95
77431;BME280;66498;48.564;19.272;2023-03-23T04:22:37;97435.63;;;0.96;80.87
77431;BME280;66498;48.564;19.272;2023-03-23T04:25:03;97435.94;;;1.09;78.81
77431;BME280;66498;48.564;19.272;2023-03-23T04:27:31;97443.53;;;0.70;80.26
77431;BME280;66498;48.564;19.272;2023-03-23T04:29:58;97444.84;;;0.99;79.18
77431;BME280;66498;48.564;19.272;2023-03-23T04:32:28;97440.16;;;0.61;80.79
77431;BME280;66498;48.564;19.272;2023-03-23T04:34:57;97442.56;;;0.71;81.21
77431;BME280;66498;48.564;19.272;2023-03-23T04:37:26;97433.03;;;0.63;81.59
77431;BME280;66498;48.564;19.272;2023-03-23T04:39:56;97439.63;;;0.50;82.52
77431;BME280;66498;48.564;19.272;2023-03-23T04:42:32;97437.41;;;0.55;81.68
77431;BME280;66498;48.564;19.272;2023-03-23T04:44:59;97436.72;;;0.28;83.59
77431;BME280;66498;48.564;19.272;2023-03-23T04:47:27;97435.75;;;0.37;83.52
77431;BME280;66498;48.564;19.272;2023-03-23T04:49:56;97427.69;;;0.49;82.52
77431;BME280;66498;48.564;19.272;2023-03-23T04:52:24;97428.00;;;0.29;82.12
77431;BME280;66498;48.564;19.272;2023-03-23T04:54:51;97435.75;;;0.37;81.86
77431;BME280;66498;48.564;19.272;2023-03-23T04:57:18;97436.28;;;0.65;80.50
77431;BME280;66498;48.564;19.272;2023-03-23T04:59:43;97430.78;;;0.77;80.21
77431;BME280;66498;48.564;19.272;2023-03-23T05:02:10;97431.41;;;0.38;82.01
77431;BME280;66498;48.564;19.272;2023-03-23T05:04:36;97438.84;;;0.41;82.34
77431;BME280;66498;48.564;19.272;2023-03-23T05:07:03;97442.09;;;0.51;81.93
77431;BME280;66498;48.564;19.272;2023-03-23T05:09:29;97443.84;;;0.67;80.99
77431;BME280;66498;48.564;19.272;2023-03-23T05:11:54;97445.94;;;0.47;81.14
77431;BME280;66498;48.564;19.272;2023-03-23T05:14:24;97446.91;;;0.46;81.85
77431;BME280;66498;48.564;19.272;2023-03-23T05:16:50;97446.75;;;0.56;82.34
77431;BME280;66498;48.564;19.272;2023-03-23T05:19:17;97448.22;;;0.75;82.20
77431;BME280;66498;48.564;19.272;2023-03-23T05:21:42;97453.06;;;1.02;81.63
77431;BME280;66498;48.564;19.272;2023-03-23T05:24:09;97455.00;;;0.76;82.51
77431;BME280;66498;48.564;19.272;2023-03-23T05:26:34;97456.63;;;0.93;82.18
77431;BME280;66498;48.564;19.272;2023-03-23T05:29:00;97458.06;;;1.04;81.91
77431;BME280;66498;48.564;19.272;2023-03-23T05:31:26;97460.97;;;1.01;82.45
77431;BME280;66498;48.564;19.272;2023-03-23T05:33:52;97462.59;;;0.85;82.89
77431;BME280;66498;48.564;19.272;2023-03-23T05:36:18;97459.03;;;0.86;83.42
77431;BME280;66498;48.564;19.272;2023-03-23T05:38:43;97455.00;;;0.84;84.17
77431;BME280;66498;48.564;19.272;2023-03-23T05:41:13;97459.03;;;1.03;83.35
77431;BME280;66498;48.564;19.272;2023-03-23T05:43:39;97459.84;;;1.03;83.59
77431;BME280;66498;48.564;19.272;2023-03-23T05:46:05;97467.09;;;1.08;83.65
77431;BME280;66498;48.564;19.272;2023-03-23T05:48:32;97466.28;;;1.15;83.91
77431;BME280;66498;48.564;19.272;2023-03-23T05:50:58;97467.44;;;1.29;83.66
77431;BME280;66498;48.564;19.272;2023-03-23T05:53:24;97472.69;;;1.52;82.65
77431;BME280;66498;48.564;19.272;2023-03-23T05:55:49;97476.94;;;2.01;80.99
77431;BME280;66498;48.564;19.272;2023-03-23T05:58:15;97470.78;;;1.94;81.16
77431;BME280;66498;48.564;19.272;2023-03-23T06:00:41;97469.88;;;1.78;82.25
77431;BME280;66498;48.564;19.272;2023-03-23T06:03:06;97472.94;;;1.82;82.75
77431;BME280;66498;48.564;19.272;2023-03-23T06:05:32;97464.94;;;2.00;82.08
77431;BME280;66498;48.564;19.272;2023-03-23T06:07:58;97476.59;;;1.96;82.26
77431;BME280;66498;48.564;19.272;2023-03-23T06:10:24;97473.53;;;2.31;81.23
77431;BME280;66498;48.564;19.272;2023-03-23T06:12:50;97481.50;;;2.53;80.21
77431;BME280;66498;48.564;19.272;2023-03-23T06:15:17;97491.47;;;2.64;79.90
77431;BME280;66498;48.564;19.272;2023-03-23T06:17:42;97487.78;;;2.81;79.57
77431;BME280;66498;48.564;19.272;2023-03-23T06:20:08;97486.88;;;2.74;79.54
77431;BME280;66498;48.564;19.272;2023-03-23T06:22:37;97483.13;;;3.00;79.10
77431;BME280;66498;48.564;19.272;2023-03-23T06:25:06;97472.53;;;3.24;79.63
77431;BME280;66498;48.564;19.272;2023-03-23T06:27:32;97460.63;;;3.15;80.29
77431;BME280;66498;48.564;19.272;2023-03-23T06:29:58;97473.34;;;3.25;79.23
77431;BME280;66498;48.564;19.272;2023-03-23T06:32:25;97474.91;;;3.49;78.89
77431;BME280;66498;48.564;19.272;2023-03-23T06:34:53;97473.41;;;3.84;77.53
77431;BME280;66498;48.564;19.272;2023-03-23T06:37:19;97475.25;;;3.90;77.69
77431;BME280;66498;48.564;19.272;2023-03-23T06:39:45;97482.19;;;4.34;76.76
77431;BME280;66498;48.564;19.272;2023-03-23T06:42:11;97476.91;;;4.42;78.05
77431;BME280;66498;48.564;19.272;2023-03-23T06:44:38;97475.00;;;4.15;78.74
77431;BME280;66498;48.564;19.272;2023-03-23T06:47:04;97482.97;;;4.49;77.53
77431;BME280;66498;48.564;19.272;2023-03-23T06:49:30;97478.09;;;4.61;77.39
77431;BME280;66498;48.564;19.272;2023-03-23T06:51:56;97474.97;;;5.15;75.80
77431;BME280;66498;48.564;19.272;2023-03-23T06:54:22;97478.50;;;5.29;76.00
77431;BME280;66498;48.564;19.272;2023-03-23T06:56:48;97476.13;;;5.62;74.05
77431;BME280;66498;48.564;19.272;2023-03-23T06:59:13;97482.41;;;5.75;74.55
77431;BME280;66498;48.564;19.272;2023-03-23T07:01:39;97477.94;;;5.97;73.69
77431;BME280;66498;48.564;19.272;2023-03-23T07:04:05;97481.03;;;5.79;73.57
77431;BME280;66498;48.564;19.272;2023-03-23T07:06:31;97487.63;;;5.75;75.22
77431;BME280;66498;48.564;19.272;2023-03-23T07:08:57;97481.78;;;5.73;74.61
77431;BME280;66498;48.564;19.272;2023-03-23T07:11:23;97483.09;;;5.90;74.36
77431;BME280;66498;48.564;19.272;2023-03-23T07:13:49;97480.78;;;6.02;74.51
77431;BME280;66498;48.564;19.272;2023-03-23T07:16:16;97484.22;;;5.74;76.16
77431;BME280;66498;48.564;19.272;2023-03-23T07:18:42;97482.00;;;5.71;76.11
77431;BME280;66498;48.564;19.272;2023-03-23T07:21:07;97484.72;;;5.63;76.42
77431;BME280;66498;48.564;19.272;2023-03-23T07:23:33;97482.78;;;5.72;76.59
77431;BME280;66498;48.564;19.272;2023-03-23T07:25:59;97485.25;;;5.80;76.78
77431;BME280;66498;48.564;19.272;2023-03-23T07:28:24;97474.16;;;5.99;75.84
77431;BME280;66498;48.564;19.272;2023-03-23T07:30:50;97488.44;;;6.10;75.53
77431;BME280;66498;48.564;19.272;2023-03-23T07:33:16;97487.09;;;6.27;74.22
77431;BME280;66498;48.564;19.272;2023-03-23T07:35:42;97490.00;;;6.46;74.19
77431;BME280;66498;48.564;19.272;2023-03-23T07:38:08;97481.66;;;6.83;72.38
77431;BME280;66498;48.564;19.272;2023-03-23T07:40:34;97489.66;;;6.88;73.07
77431;BME280;66498;48.564;19.272;2023-03-23T07:43:01;97488.28;;;6.79;74.23
77431;BME280;66498;48.564;19.272;2023-03-23T07:45:27;97492.50;;;7.00;73.85
77431;BME280;66498;48.564;19.272;2023-03-23T07:47:52;97487.69;;;7.10;74.29
77431;BME280;66498;48.564;19.272;2023-03-23T07:50:19;97485.50;;;7.27;73.04
77431;BME280;66498;48.564;19.272;2023-03-23T07:52:48;97477.81;;;7.66;71.73
77431;BME280;66498;48.564;19.272;2023-03-23T07:55:13;97478.59;;;7.86;70.44
77431;BME280;66498;48.564;19.272;2023-03-23T07:57:44;97472.63;;;8.24;69.81
77431;BME280;66498;48.564;19.272;2023-03-23T08:00:10;97467.66;;;8.09;70.01
77431;BME280;66498;48.564;19.272;2023-03-23T08:02:50;97473.56;;;8.49;68.71
77431;BME280;66498;48.564;19.272;2023-03-23T08:05:16;97470.28;;;8.92;67.59
77431;BME280;66498;48.564;19.272;2023-03-23T08:07:43;97475.25;;;9.00;66.94
77431;BME280;66498;48.564;19.272;2023-03-23T08:10:11;97468.41;;;8.99;67.18
77431;BME280;66498;48.564;19.272;2023-03-23T08:12:41;97474.91;;;9.22;66.31
77431;BME280;66498;48.564;19.272;2023-03-23T08:15:08;97476.13;;;9.44;65.94
77431;BME280;66498;48.564;19.272;2023-03-23T08:17:35;97464.13;;;9.30;66.93
77431;BME280;66498;48.564;19.272;2023-03-23T08:20:02;97466.47;;;9.63;65.23
77431;BME280;66498;48.564;19.272;2023-03-23T08:22:34;97465.72;;;9.56;65.51
77431;BME280;66498;48.564;19.272;2023-03-23T08:25:02;97470.34;;;9.36;67.09
77431;BME280;66498;48.564;19.272;2023-03-23T08:27:29;97472.53;;;9.39;67.13
77431;BME280;66498;48.564;19.272;2023-03-23T08:29:54;97471.09;;;9.18;67.92
77431;BME280;66498;48.564;19.272;2023-03-23T08:32:20;97475.59;;;9.36;67.92
77431;BME280;66498;48.564;19.272;2023-03-23T08:34:46;97475.97;;;9.39;67.40
77431;BME280;66498;48.564;19.272;2023-03-23T08:37:12;97462.03;;;10.01;65.43
77431;BME280;66498;48.564;19.272;2023-03-23T08:39:38;97462.06;;;10.19;65.28
77431;BME280;66498;48.564;19.272;2023-03-23T08:42:04;97461.16;;;10.44;64.30
77431;BME280;66498;48.564;19.272;2023-03-23T08:44:29;97458.31;;;10.45;62.48
77431;BME280;66498;48.564;19.272;2023-03-23T08:46:55;97467.75;;;10.64;64.09
77431;BME280;66498;48.564;19.272;2023-03-23T08:49:25;97460.25;;;10.80;63.20
77431;BME280;66498;48.564;19.272;2023-03-23T08:51:51;97460.75;;;11.00;62.22
77431;BME280;66498;48.564;19.272;2023-03-23T08:54:17;97457.81;;;11.20;61.53
77431;BME280;66498;48.564;19.272;2023-03-23T08:56:43;97461.03;;;11.22;61.25
77431;BME280;66498;48.564;19.272;2023-03-23T08:59:08;97460.66;;;10.95;62.43
77431;BME280;66498;48.564;19.272;2023-03-23T09:01:35;97459.63;;;10.96;62.61
77431;BME280;66498;48.564;19.272;2023-03-23T09:04:01;97451.38;;;10.81;62.97
77431;BME280;66498;48.564;19.272;2023-03-23T09:06:27;97445.81;;;11.12;62.28
77431;BME280;66498;48.564;19.272;2023-03-23T09:08:53;97449.59;;;11.17;62.17
77431;BME280;66498;48.564;19.272;2023-03-23T09:11:21;97443.69;;;11.33;62.23
77431;BME280;66498;48.564;19.272;2023-03-23T09:13:47;97450.19;;;11.30;61.89
77431;BME280;66498;48.564;19.272;2023-03-23T09:16:13;97451.22;;;11.29;62.05
77431;BME280;66498;48.564;19.272;2023-03-23T09:18:38;97447.00;;;11.28;62.31
77431;BME280;66498;48.564;19.272;2023-03-23T09:21:04;97452.81;;;11.19;63.26
77431;BME280;66498;48.564;19.272;2023-03-23T09:23:31;97451.41;;;11.04;63.84
77431;BME280;66498;48.564;19.272;2023-03-23T09:25:56;97454.88;;;11.28;62.46
77431;BME280;66498;48.564;19.272;2023-03-23T09:28:22;97454.25;;;11.03;63.85
77431;BME280;66498;48.564;19.272;2023-03-23T09:30:48;97453.84;;;11.41;62.01
77431;BME280;66498;48.564;19.272;2023-03-23T09:33:14;97447.56;;;11.42;61.29
77431;BME280;66498;48.564;19.272;2023-03-23T09:35:40;97444.47;;;11.69;59.99
77431;BME280;66498;48.564;19.272;2023-03-23T09:38:07;97445.41;;;11.86;60.13
77431;BME280;66498;48.564;19.272;2023-03-23T09:43:32;97438.72;;;12.07;59.65
77431;BME280;66498;48.564;19.272;2023-03-23T09:53:58;97429.00;;;12.36;57.67
77431;BME280;66498;48.564;19.272;2023-03-23T09:56:29;97420.97;;;12.71;57.31
77431;BME280;66498;48.564;19.272;2023-03-23T09:59:08;97425.34;;;12.66;57.62
77431;BME280;66498;48.564;19.272;2023-03-23T10:01:45;97431.22;;;12.56;57.89
77431;BME280;66498;48.564;19.272;2023-03-23T10:04:36;97427.34;;;12.75;59.05
77431;BME280;66498;48.564;19.272;2023-03-23T10:07:16;97427.69;;;12.96;57.81
77431;BME280;66498;48.564;19.272;2023-03-23T10:09:45;97426.00;;;13.23;56.26
77431;BME280;66498;48.564;19.272;2023-03-23T10:17:27;97421.16;;;13.32;56.36
77431;BME280;66498;48.564;19.272;2023-03-23T10:28:42;97408.84;;;13.99;54.06
77431;BME280;66498;48.564;19.272;2023-03-23T10:31:13;97409.97;;;13.81;55.25
77431;BME280;66498;48.564;19.272;2023-03-23T10:33:44;97405.41;;;13.76;54.99
77431;BME280;66498;48.564;19.272;2023-03-23T10:36:34;97407.66;;;13.67;55.61
77431;BME280;66498;48.564;19.272;2023-03-23T10:39:06;97396.16;;;13.73;54.54
77431;BME280;66498;48.564;19.272;2023-03-23T10:41:36;97403.81;;;13.97;54.79
77431;BME280;66498;48.564;19.272;2023-03-23T10:44:12;97395.97;;;13.80;54.83
77431;BME280;66498;48.564;19.272;2023-03-23T10:46:54;97396.63;;;13.92;54.25
77431;BME280;66498;48.564;19.272;2023-03-23T10:49:57;97388.41;;;14.11;50.85
77431;BME280;66498;48.564;19.272;2023-03-23T10:52:32;97389.66;;;14.03;51.43
77431;BME280;66498;48.564;19.272;2023-03-23T10:55:23;97383.38;;;14.09;52.58
77431;BME280;66498;48.564;19.272;2023-03-23T10:58:00;97387.66;;;14.37;52.57
77431;BME280;66498;48.564;19.272;2023-03-23T11:00:27;97388.19;;;14.66;52.05
77431;BME280;66498;48.564;19.272;2023-03-23T11:05:41;97371.00;;;14.96;51.30
77431;BME280;66498;48.564;19.272;2023-03-23T11:08:12;97368.16;;;15.08;51.96
77431;BME280;66498;48.564;19.272;2023-03-23T11:11:09;97365.72;;;14.96;50.89
77431;BME280;66498;48.564;19.272;2023-03-23T11:13:41;97353.91;;;15.51;47.46
77431;BME280;66498;48.564;19.272;2023-03-23T11:16:41;97351.63;;;15.70;49.19
77431;BME280;66498;48.564;19.272;2023-03-23T11:19:25;97343.84;;;16.11;47.37
77431;BME280;66498;48.564;19.272;2023-03-23T11:21:53;97353.13;;;16.14;47.20
77431;BME280;66498;48.564;19.272;2023-03-23T11:24:22;97344.69;;;16.63;47.75
77431;BME280;66498;48.564;19.272;2023-03-23T11:26:50;97347.09;;;16.69;45.75
77431;BME280;66498;48.564;19.272;2023-03-23T11:29:22;97343.66;;;16.84;44.93
77431;BME280;66498;48.564;19.272;2023-03-23T11:34:39;97336.47;;;16.64;45.97
77431;BME280;66498;48.564;19.272;2023-03-23T11:39:57;97316.34;;;16.53;44.60
77431;BME280;66498;48.564;19.272;2023-03-23T11:42:58;97323.50;;;16.73;44.30
77431;BME280;66498;48.564;19.272;2023-03-23T11:45:34;97308.91;;;16.40;42.79
77431;BME280;66498;48.564;19.272;2023-03-23T11:48:38;97327.78;;;16.79;42.27
77431;BME280;66498;48.564;19.272;2023-03-23T11:51:18;97322.19;;;16.81;44.17
77431;BME280;66498;48.564;19.272;2023-03-23T11:56:34;97314.97;;;17.22;42.79
77431;BME280;66498;48.564;19.272;2023-03-23T11:59:00;97316.53;;;17.38;43.07
77431;BME280;66498;48.564;19.272;2023-03-23T12:04:37;97319.38;;;17.52;41.06
77431;BME280;66498;48.564;19.272;2023-03-23T12:10:12;97301.69;;;17.37;40.40
77431;BME280;66498;48.564;19.272;2023-03-23T12:13:32;97296.97;;;17.19;41.45
77431;BME280;66498;48.564;19.272;2023-03-23T12:15:52;97302.56;;;17.12;40.74
77431;BME280;66498;48.564;19.272;2023-03-23T12:33:54;97281.88;;;17.04;40.91
77431;BME280;66498;48.564;19.272;2023-03-23T12:44:32;97271.59;;;17.62;38.69
77431;BME280;66498;48.564;19.272;2023-03-23T12:47:46;97258.50;;;18.26;38.24
77431;BME280;66498;48.564;19.272;2023-03-23T12:50:05;97265.94;;;18.58;38.14
77431;BME280;66498;48.564;19.272;2023-03-23T12:52:39;97257.53;;;18.80;36.67
77431;BME280;66498;48.564;19.272;2023-03-23T12:55:17;97251.81;;;19.15;36.19
77431;BME280;66498;48.564;19.272;2023-03-23T12:57:54;97237.81;;;18.86;35.16
77431;BME280;66498;48.564;19.272;2023-03-23T13:00:28;97243.22;;;18.76;36.20
77431;BME280;66498;48.564;19.272;2023-03-23T13:03:20;97240.00;;;18.79;35.71
77431;BME280;66498;48.564;19.272;2023-03-23T13:11:27;97236.50;;;17.70;38.48
77431;BME280;66498;48.564;19.272;2023-03-23T13:14:24;97223.44;;;17.84;37.96
77431;BME280;66498;48.564;19.272;2023-03-23T13:22:17;97225.34;;;17.19;39.60
77431;BME280;66498;48.564;19.272;2023-03-23T13:24:58;97224.88;;;16.96;39.88
77431;BME280;66498;48.564;19.272;2023-03-23T13:27:25;97222.78;;;16.73;39.95
77431;BME280;66498;48.564;19.272;2023-03-23T13:29:58;97211.66;;;16.81;39.89
77431;BME280;66498;48.564;19.272;2023-03-23T13:32:44;97205.28;;;16.92;40.58
77431;BME280;66498;48.564;19.272;2023-03-23T13:35:17;97209.25;;;16.90;41.12
77431;BME280;66498;48.564;19.272;2023-03-23T13:37:49;97209.25;;;16.85;40.74
77431;BME280;66498;48.564;19.272;2023-03-23T13:42:50;97209.22;;;17.05;40.67
77431;BME280;66498;48.564;19.272;2023-03-23T13:50:59;97205.81;;;16.84;40.38
77431;BME280;66498;48.564;19.272;2023-03-23T13:53:51;97208.88;;;17.22;39.33
77431;BME280;66498;48.564;19.272;2023-03-23T13:59:03;97214.13;;;17.37;38.32
77431;BME280;66498;48.564;19.272;2023-03-23T14:01:36;97212.44;;;17.57;38.47
77431;BME280;66498;48.564;19.272;2023-03-23T14:04:05;97212.59;;;17.81;37.64
77431;BME280;66498;48.564;19.272;2023-03-23T14:06:35;97220.44;;;17.96;37.29
77431;BME280;66498;48.564;19.272;2023-03-23T14:09:11;97211.34;;;18.07;37.90
77431;BME280;66498;48.564;19.272;2023-03-23T14:11:48;97212.63;;;17.70;38.90
77431;BME280;66498;48.564;19.272;2023-03-23T14:14:22;97218.00;;;17.55;39.69
77431;BME280;66498;48.564;19.272;2023-03-23T14:16:50;97210.03;;;17.55;39.24
77431;BME280;66498;48.564;19.272;2023-03-23T14:19:27;97207.88;;;18.07;38.86
77431;BME280;66498;48.564;19.272;2023-03-23T14:22:01;97204.53;;;18.59;37.58
77431;BME280;66498;48.564;19.272;2023-03-23T14:24:33;97207.88;;;18.75;36.85
77431;BME280;66498;48.564;19.272;2023-03-23T14:27:14;97204.50;;;18.30;37.89
77431;BME280;66498;48.564;19.272;2023-03-23T14:29:41;97200.16;;;18.44;38.28
77431;BME280;66498;48.564;19.272;2023-03-23T14:32:10;97204.88;;;18.48;37.43
77431;BME280;66498;48.564;19.272;2023-03-23T14:34:37;97198.50;;;18.78;37.78
77431;BME280;66498;48.564;19.272;2023-03-23T14:37:03;97199.28;;;18.78;37.15
77431;BME280;66498;48.564;19.272;2023-03-23T14:39:33;97206.41;;;18.59;37.41
77431;BME280;66498;48.564;19.272;2023-03-23T14:42:13;97217.19;;;18.67;37.77
77431;BME280;66498;48.564;19.272;2023-03-23T14:44:50;97209.56;;;19.14;36.61
77431;BME280;66498;48.564;19.272;2023-03-23T14:47:23;97205.94;;;18.81;36.65
77431;BME280;66498;48.564;19.272;2023-03-23T14:49:54;97208.44;;;18.72;36.90
77431;BME280;66498;48.564;19.272;2023-03-23T14:52:23;97204.53;;;18.59;37.24
77431;BME280;66498;48.564;19.272;2023-03-23T14:54:49;97203.13;;;18.67;37.78
77431;BME280;66498;48.564;19.272;2023-03-23T14:57:25;97205.22;;;18.75;36.81
77431;BME280;66498;48.564;19.272;2023-03-23T14:59:51;97208.31;;;18.53;36.59